Time;durP1;ratioP1;P1;durP2;ratioP2;P2;SDS_P1;SDS_P2;PMS_P1;PMS_P2;Temp;Humidity;BMP_temperature;BMP_pressure;BME280_temperature;BME280_humidity;BME280_pressure;Samples;Min_cycle;Max_cycle;Signal;HPM_P1;HPM_P2
2023/01/05 00:02:24;;;;;;;10.68;3.25;;;;;;;;;;5107565;28;20063;-64
2023/01/05 00:04:50;;;;;;;18.52;3.28;;;;;;;;;;5106875;28;20097;-64
2023/01/05 00:07:16;;;;;;;19.52;3.72;;;;;;;;;;5087887;28;20044;-63
2023/01/05 00:09:42;;;;;;;10.98;2.60;;;;;;;;;;5107930;28;20040;-64
2023/01/05 00:23:08;;;;;;;12.27;2.85;;;;;;;;;;5107149;28;20544;-64
2023/01/05 00:25:38;;;;;;;12.38;2.83;;;;;;;;;;5107281;28;20469;-63
2023/01/05 00:28:04;;;;;;;14.98;3.17;;;;;;;;;;5087506;28;20051;-64
2023/01/05 00:30:32;;;;;;;14.88;3.60;;;;;;;;;;5088180;28;20054;-63
2023/01/05 00:32:58;;;;;;;13.52;3.38;;;;;;;;;;5087491;28;20497;-64
2023/01/05 00:35:24;;;;;;;15.20;3.72;;;;;;;;;;5087460;28;20095;-64
2023/01/05 00:37:50;;;;;;;15.55;3.13;;;;;;;;;;5102177;28;20055;-64
2023/01/05 00:40:18;;;;;;;13.70;3.38;;;;;;;;;;5094995;28;20044;-63
2023/01/05 00:42:44;;;;;;;15.98;3.47;;;;;;;;;;5088043;28;20477;-64
2023/01/05 00:45:11;;;;;;;17.00;4.45;;;;;;;;;;5090378;28;20043;-64
2023/01/05 00:47:37;;;;;;;14.98;3.78;;;;;;;;;;5091050;28;20047;-64
2023/01/05 00:50:04;;;;;;;13.75;2.30;;;;;;;;;;5092472;28;20124;-64
2023/01/05 00:52:30;;;;;;;11.75;2.85;;;;;;;;;;5087493;28;20117;-64
2023/01/05 00:54:56;;;;;;;17.70;3.40;;;;;;;;;;5100670;28;20062;-64
2023/01/05 00:57:22;;;;;;;11.13;3.35;;;;;;;;;;5098882;28;20040;-64
2023/01/05 00:59:48;;;;;;;20.67;4.50;;;;;;;;;;5100314;28;20036;-64
2023/01/05 01:02:14;;;;;;;14.20;3.55;;;;;;;;;;5101146;28;20047;-64
2023/01/05 01:04:40;;;;;;;17.40;3.10;;;;;;;;;;5093998;28;20041;-63
2023/01/05 01:07:06;;;;;;;9.98;2.72;;;;;;;;;;5092656;28;20418;-63
2023/01/05 01:09:33;;;;;;;18.20;2.90;;;;;;;;;;5094634;28;20044;-63
2023/01/05 01:11:59;;;;;;;16.52;4.15;;;;;;;;;;5099140;28;20472;-63
2023/01/05 01:14:25;;;;;;;10.13;2.78;;;;;;;;;;5086536;28;20048;-64
2023/01/05 01:16:51;;;;;;;15.55;3.75;;;;;;;;;;5077425;28;20056;-64
2023/01/05 01:19:19;;;;;;;17.08;3.00;;;;;;;;;;5064845;28;20188;-64
2023/01/05 01:21:45;;;;;;;13.02;3.58;;;;;;;;;;5092906;28;20050;-63
2023/01/05 01:24:19;;;;;;;9.35;2.75;;;;;;;;;;5095020;28;20055;-63
2023/01/05 01:26:45;;;;;;;13.05;2.60;;;;;;;;;;5084939;28;20389;-64
2023/01/05 01:29:11;;;;;;;13.35;3.85;;;;;;;;;;5089103;28;20462;-64
2023/01/05 01:31:37;;;;;;;12.48;3.53;;;;;;;;;;5095862;28;20138;-64
2023/01/05 01:34:03;;;;;;;14.48;3.17;;;;;;;;;;5101101;28;20146;-63
2023/01/05 01:36:29;;;;;;;16.98;3.80;;;;;;;;;;5104748;28;20059;-64
2023/01/05 01:38:55;;;;;;;15.88;3.17;;;;;;;;;;5087454;28;20167;-64
2023/01/05 01:41:21;;;;;;;16.63;3.70;;;;;;;;;;5086715;28;20048;-64
2023/01/05 01:43:48;;;;;;;17.90;4.28;;;;;;;;;;5085114;28;20040;-64
2023/01/05 01:46:15;;;;;;;14.10;2.67;;;;;;;;;;5100884;28;20050;-64
2023/01/05 01:48:49;;;;;;;14.60;3.00;;;;;;;;;;5086928;28;20082;-64
2023/01/05 01:51:17;;;;;;;9.07;2.53;;;;;;;;;;5097451;28;20043;-64
2023/01/05 01:53:45;;;;;;;6.10;2.60;;;;;;;;;;5097009;28;20401;-63
2023/01/05 01:56:13;;;;;;;14.68;3.10;;;;;;;;;;5100769;28;20048;-63
2023/01/05 01:58:39;;;;;;;14.77;2.72;;;;;;;;;;5085251;28;20118;-64
2023/01/05 02:01:05;;;;;;;11.98;2.55;;;;;;;;;;5085333;28;20518;-63
2023/01/05 02:03:31;;;;;;;12.02;2.97;;;;;;;;;;5099827;28;20044;-63
2023/01/05 02:05:58;;;;;;;12.27;2.40;;;;;;;;;;5084834;28;20502;-64
2023/01/05 02:08:30;;;;;;;8.85;2.63;;;;;;;;;;5099726;28;20036;-64
2023/01/05 02:10:59;;;;;;;14.93;2.83;;;;;;;;;;5098387;28;20070;-63
2023/01/05 02:13:37;;;;;;;14.25;3.30;;;;;;;;;;5084289;28;20059;-63
2023/01/05 02:16:15;;;;;;;13.23;3.30;;;;;;;;;;5088537;28;20172;-63
2023/01/05 02:18:50;;;;;;;9.98;2.95;;;;;;;;;;5080307;28;20048;-63
2023/01/05 02:21:16;;;;;;;13.65;3.45;;;;;;;;;;5096459;28;20116;-64
2023/01/05 02:23:49;;;;;;;12.52;2.53;;;;;;;;;;5086083;28;20481;-63
2023/01/05 02:26:14;;;;;;;;;;;;;;;;;;5084759;28;20051;-63
2023/01/05 02:28:55;;;;;;;13.15;3.75;;;;;;;;;;5097327;28;19920;-63
2023/01/05 02:31:29;;;;;;;20.80;3.97;;;;;;;;;;5091057;28;20108;-64
2023/01/05 02:33:55;;;;;;;16.98;3.63;;;;;;;;;;5079863;28;20075;-63
2023/01/05 02:36:21;;;;;;;15.25;3.67;;;;;;;;;;5097889;28;20059;-64
2023/01/05 02:39:01;;;;;;;15.07;2.92;;;;;;;;;;5083087;28;20056;-63
2023/01/05 02:41:45;;;;;;;19.80;4.13;;;;;;;;;;5093276;28;20089;-63
2023/01/05 02:44:14;;;;;;;12.82;3.53;;;;;;;;;;5095010;28;20044;-63
2023/01/05 02:46:40;;;;;;;14.35;2.72;;;;;;;;;;5080954;28;20729;-63
2023/01/05 02:49:06;;;;;;;16.83;3.45;;;;;;;;;;5084775;28;20051;-63
2023/01/05 02:51:37;;;;;;;15.75;3.70;;;;;;;;;;5098055;28;20043;-64
2023/01/05 02:54:14;;;;;;;12.98;3.70;;;;;;;;;;5094445;28;20617;-63
2023/01/05 02:56:49;;;;;;;12.40;3.47;;;;;;;;;;5085051;28;20452;-63
2023/01/05 02:59:26;;;;;;;13.55;3.25;;;;;;;;;;5098238;28;20040;-64
2023/01/05 03:01:57;;;;;;;11.00;3.13;;;;;;;;;;5096584;28;20509;-64
2023/01/05 03:04:27;;;;;;;9.73;3.13;;;;;;;;;;5098355;28;20062;-64
2023/01/05 03:06:58;;;;;;;11.85;3.13;;;;;;;;;;5084102;28;20478;-63
2023/01/05 03:09:26;;;;;;;18.90;4.38;;;;;;;;;;5096656;28;20131;-64
2023/01/05 03:14:48;;;;;;;18.58;4.25;;;;;;;;;;5086141;28;20486;-64
2023/01/05 03:17:17;;;;;;;15.35;3.40;;;;;;;;;;5107177;28;20036;-63
2023/01/05 03:19:44;;;;;;;12.20;3.30;;;;;;;;;;5090958;28;20043;-64
2023/01/05 03:36:12;;;;;;;12.75;3.08;;;;;;;;;;5094207;28;20063;-63
2023/01/05 03:38:40;;;;;;;10.52;3.15;;;;;;;;;;5099232;28;20044;-63
2023/01/05 03:41:10;;;;;;;17.73;4.15;;;;;;;;;;5099970;28;20058;-63
2023/01/05 03:43:36;;;;;;;15.55;3.67;;;;;;;;;;5095031;28;20040;-63
2023/01/05 03:46:09;;;;;;;15.05;3.65;;;;;;;;;;5088437;28;20130;-63
2023/01/05 03:48:35;;;;;;;11.52;2.90;;;;;;;;;;5087472;28;20048;-63
2023/01/05 03:51:01;;;;;;;11.32;2.67;;;;;;;;;;5097207;28;20674;-64
2023/01/05 03:53:27;;;;;;;17.60;3.28;;;;;;;;;;5103220;28;20144;-64
2023/01/05 03:55:53;;;;;;;10.85;3.35;;;;;;;;;;5089072;28;20043;-63
2023/01/05 03:58:19;;;;;;;14.25;3.35;;;;;;;;;;5087074;28;20576;-64
2023/01/05 04:00:45;;;;;;;9.43;2.80;;;;;;;;;;5107975;28;20047;-64
2023/01/05 04:03:11;;;;;;;11.75;3.30;;;;;;;;;;5100495;28;20491;-64
2023/01/05 04:05:37;;;;;;;10.82;3.05;;;;;;;;;;5091603;28;20089;-63
2023/01/05 04:08:03;;;;;;;13.77;3.65;;;;;;;;;;5095639;28;20036;-64
2023/01/05 04:10:29;;;;;;;13.80;2.72;;;;;;;;;;5080808;28;20040;-64
2023/01/05 04:12:56;;;;;;;14.25;3.75;;;;;;;;;;5078971;28;20050;-64
2023/01/05 04:15:22;;;;;;;14.32;3.35;;;;;;;;;;5098077;28;20409;-64
2023/01/05 04:17:48;;;;;;;12.88;3.10;;;;;;;;;;5092552;28;20047;-64
2023/01/05 04:20:14;;;;;;;11.18;3.10;;;;;;;;;;5082830;28;20192;-64
2023/01/05 04:22:40;;;;;;;9.95;2.80;;;;;;;;;;5096380;28;20046;-64
2023/01/05 04:25:07;;;;;;;8.57;2.17;;;;;;;;;;5072960;28;20056;-64
2023/01/05 04:27:33;;;;;;;10.00;3.50;;;;;;;;;;5083549;28;20404;-64
2023/01/05 04:29:59;;;;;;;9.82;2.53;;;;;;;;;;5091780;28;20059;-63
2023/01/05 04:32:25;;;;;;;11.15;3.72;;;;;;;;;;5082892;28;20043;-64
2023/01/05 04:34:51;;;;;;;15.13;3.28;;;;;;;;;;5097424;28;20073;-64
2023/01/05 04:37:17;;;;;;;8.88;3.35;;;;;;;;;;5097675;28;21158;-63
2023/01/05 04:39:43;;;;;;;11.07;3.42;;;;;;;;;;5094343;28;20055;-64
2023/01/05 04:42:09;;;;;;;16.00;3.67;;;;;;;;;;5098206;28;20042;-64
2023/01/05 04:44:35;;;;;;;12.63;3.67;;;;;;;;;;5086560;28;20130;-64
2023/01/05 04:47:01;;;;;;;17.50;3.88;;;;;;;;;;5097538;28;20067;-63
2023/01/05 04:49:27;;;;;;;9.77;3.00;;;;;;;;;;5097613;28;20741;-63
2023/01/05 04:51:53;;;;;;;11.68;2.97;;;;;;;;;;5097733;28;20075;-64
2023/01/05 04:54:19;;;;;;;11.88;2.88;;;;;;;;;;5093715;28;20516;-64
2023/01/05 04:56:45;;;;;;;11.25;3.60;;;;;;;;;;5093782;28;20039;-64
2023/01/05 04:59:11;;;;;;;18.02;3.78;;;;;;;;;;5094041;28;20055;-64
2023/01/05 05:01:37;;;;;;;12.60;2.95;;;;;;;;;;5098453;28;20448;-64
2023/01/05 05:04:03;;;;;;;9.65;3.03;;;;;;;;;;5085127;28;20052;-64
2023/01/05 05:06:29;;;;;;;9.13;2.53;;;;;;;;;;5097833;28;20043;-64
2023/01/05 05:08:55;;;;;;;11.40;2.78;;;;;;;;;;5099213;28;20044;-64
2023/01/05 05:11:21;;;;;;;8.65;2.40;;;;;;;;;;5086140;28;20052;-64
2023/01/05 05:13:47;;;;;;;8.82;2.92;;;;;;;;;;5101315;28;20114;-63
2023/01/05 05:16:14;;;;;;;8.95;2.85;;;;;;;;;;5084313;28;20454;-63
2023/01/05 05:18:40;;;;;;;12.30;2.78;;;;;;;;;;5096375;28;20089;-64
2023/01/05 05:21:06;;;;;;;10.35;3.30;;;;;;;;;;5093814;28;20043;-64
2023/01/05 05:23:32;;;;;;;11.40;3.00;;;;;;;;;;5084876;28;20075;-64
2023/01/05 05:25:58;;;;;;;8.38;2.15;;;;;;;;;;5095700;28;20047;-64
2023/01/05 05:28:27;;;;;;;10.45;2.60;;;;;;;;;;5085578;28;20044;-64
2023/01/05 05:30:54;;;;;;;9.68;2.83;;;;;;;;;;5094469;28;20059;-64
2023/01/05 05:33:20;;;;;;;15.65;3.72;;;;;;;;;;5086650;28;20082;-64
2023/01/05 05:35:46;;;;;;;9.48;2.00;;;;;;;;;;5085915;28;20079;-64
2023/01/05 05:38:12;;;;;;;9.00;2.90;;;;;;;;;;5096713;28;20101;-63
2023/01/05 05:40:38;;;;;;;14.98;3.05;;;;;;;;;;5085832;28;20123;-64
2023/01/05 05:43:04;;;;;;;12.80;3.92;;;;;;;;;;5085054;28;20131;-64
2023/01/05 05:45:30;;;;;;;8.20;2.58;;;;;;;;;;5093813;28;20133;-64
2023/01/05 05:47:56;;;;;;;15.68;3.17;;;;;;;;;;5095353;28;20424;-63
2023/01/05 05:50:22;;;;;;;11.02;3.60;;;;;;;;;;5096823;28;20059;-64
2023/01/05 05:52:49;;;;;;;12.20;3.55;;;;;;;;;;5097488;28;20047;-63
2023/01/05 05:55:15;;;;;;;16.30;4.03;;;;;;;;;;5083941;28;20040;-64
2023/01/05 05:57:41;;;;;;;11.90;4.10;;;;;;;;;;5096489;28;20595;-64
2023/01/05 06:00:07;;;;;;;10.63;2.15;;;;;;;;;;5093212;28;20100;-63
2023/01/05 06:02:33;;;;;;;8.15;2.10;;;;;;;;;;5095407;28;20044;-64
2023/01/05 06:04:59;;;;;;;8.88;2.78;;;;;;;;;;5083401;28;20524;-64
2023/01/05 06:07:25;;;;;;;10.90;3.47;;;;;;;;;;5093510;28;20044;-64
2023/01/05 06:09:51;;;;;;;9.57;2.40;;;;;;;;;;5095112;28;20043;-64
2023/01/05 06:12:17;;;;;;;8.32;2.63;;;;;;;;;;5085187;28;20044;-64
2023/01/05 06:14:43;;;;;;;9.57;2.40;;;;;;;;;;5084270;28;20083;-64
2023/01/05 06:17:09;;;;;;;6.03;2.30;;;;;;;;;;5083455;28;20055;-64
2023/01/05 06:19:35;;;;;;;7.25;1.65;;;;;;;;;;5098807;28;20047;-64
2023/01/05 06:22:01;;;;;;;9.65;2.63;;;;;;;;;;5091724;28;20101;-64
2023/01/05 06:24:27;;;;;;;9.13;2.90;;;;;;;;;;5090787;28;20036;-64
2023/01/05 06:26:53;;;;;;;19.05;3.60;;;;;;;;;;5094477;28;20036;-64
2023/01/05 06:29:19;;;;;;;7.97;2.17;;;;;;;;;;5085022;28;20055;-64
2023/01/05 06:31:45;;;;;;;9.80;3.10;;;;;;;;;;5084127;28;20047;-63
2023/01/05 06:34:11;;;;;;;10.70;2.47;;;;;;;;;;5096197;28;20043;-64
2023/01/05 06:36:37;;;;;;;6.43;1.63;;;;;;;;;;5085274;28;20155;-64
2023/01/05 06:39:03;;;;;;;12.27;2.92;;;;;;;;;;5085277;28;20113;-64
2023/01/05 06:41:29;;;;;;;10.80;3.67;;;;;;;;;;5093115;28;20040;-64
2023/01/05 06:43:55;;;;;;;9.07;2.35;;;;;;;;;;5083288;28;20113;-64
2023/01/05 06:46:22;;;;;;;11.07;2.55;;;;;;;;;;5083539;28;20050;-64
2023/01/05 06:48:48;;;;;;;9.88;2.30;;;;;;;;;;5090272;28;20120;-64
2023/01/05 06:51:14;;;;;;;10.70;3.03;;;;;;;;;;5084070;28;20401;-64
2023/01/05 06:53:40;;;;;;;10.85;3.15;;;;;;;;;;5092376;28;20048;-64
2023/01/05 06:56:06;;;;;;;11.98;3.03;;;;;;;;;;5083459;28;20050;-64
2023/01/05 06:58:32;;;;;;;9.88;2.63;;;;;;;;;;5081883;28;20075;-63
2023/01/05 07:00:58;;;;;;;7.82;2.50;;;;;;;;;;5093739;28;20082;-64
2023/01/05 07:03:24;;;;;;;12.07;2.60;;;;;;;;;;5096019;28;20379;-64
2023/01/05 07:05:51;;;;;;;9.38;2.90;;;;;;;;;;5097762;28;20055;-63
2023/01/05 07:08:17;;;;;;;12.20;2.75;;;;;;;;;;5094749;28;20043;-64
2023/01/05 07:10:43;;;;;;;8.88;3.00;;;;;;;;;;5093392;28;20379;-66
2023/01/05 07:13:09;;;;;;;9.57;2.33;;;;;;;;;;5091001;28;20092;-65
2023/01/05 07:15:35;;;;;;;11.93;3.30;;;;;;;;;;5082709;28;20056;-64
2023/01/05 07:18:01;;;;;;;7.22;2.58;;;;;;;;;;5083098;28;20117;-65
2023/01/05 07:20:27;;;;;;;8.80;2.92;;;;;;;;;;5094577;28;20470;-65
2023/01/05 07:22:53;;;;;;;11.95;2.65;;;;;;;;;;5084120;28;20462;-65
2023/01/05 07:25:19;;;;;;;6.13;2.67;;;;;;;;;;5082275;28;20139;-65
2023/01/05 07:27:49;;;;;;;5.18;2.22;;;;;;;;;;5083365;28;20127;-64
2023/01/05 07:30:15;;;;;;;9.15;2.58;;;;;;;;;;5090746;28;20048;-65
2023/01/05 07:32:41;;;;;;;4.28;1.63;;;;;;;;;;5085791;28;20098;-65
2023/01/05 07:35:08;;;;;;;8.15;2.40;;;;;;;;;;5082226;28;20538;-65
2023/01/05 07:37:34;;;;;;;8.00;1.92;;;;;;;;;;5089044;28;20052;-65
2023/01/05 07:40:00;;;;;;;8.05;2.25;;;;;;;;;;5083283;28;20047;-64
2023/01/05 07:42:26;;;;;;;6.85;2.45;;;;;;;;;;5078557;28;20379;-64
2023/01/05 07:44:52;;;;;;;8.32;1.95;;;;;;;;;;5081660;28;20050;-65
2023/01/05 07:47:18;;;;;;;6.00;2.25;;;;;;;;;;5083698;28;20587;-65
2023/01/05 07:49:45;;;;;;;11.30;2.53;;;;;;;;;;5090447;28;20624;-65
2023/01/05 07:52:11;;;;;;;8.13;2.05;;;;;;;;;;5092838;28;20044;-65
2023/01/05 07:54:37;;;;;;;8.07;2.30;;;;;;;;;;5084847;28;20047;-65
2023/01/05 07:57:03;;;;;;;6.70;2.45;;;;;;;;;;5090286;28;20529;-65
2023/01/05 07:59:29;;;;;;;14.98;2.95;;;;;;;;;;5098526;28;20078;-65
2023/01/05 08:01:55;;;;;;;9.98;2.58;;;;;;;;;;5088430;28;20440;-65
2023/01/05 08:04:21;;;;;;;8.45;2.53;;;;;;;;;;5099026;28;20978;-64
2023/01/05 08:06:47;;;;;;;6.13;1.98;;;;;;;;;;5095750;28;20469;-64
2023/01/05 08:11:57;;;;;;;7.20;2.10;;;;;;;;;;5084763;28;20043;-64
2023/01/05 08:14:23;;;;;;;4.35;1.60;;;;;;;;;;5097668;28;20079;-65
2023/01/05 08:16:49;;;;;;;10.48;2.80;;;;;;;;;;5096769;28;20086;-65
2023/01/05 08:19:15;;;;;;;8.65;1.95;;;;;;;;;;5095214;28;20813;-64
2023/01/05 08:21:41;;;;;;;5.13;2.03;;;;;;;;;;5088662;28;20047;-65
2023/01/05 08:24:07;;;;;;;11.93;2.92;;;;;;;;;;5086036;28;20040;-65
2023/01/05 08:26:34;;;;;;;7.15;2.22;;;;;;;;;;5097091;28;20051;-64
2023/01/05 08:29:00;;;;;;;5.50;1.55;;;;;;;;;;5082058;28;20482;-65
2023/01/05 08:31:27;;;;;;;5.78;1.75;;;;;;;;;;5086632;28;20096;-65
2023/01/05 08:33:58;;;;;;;9.23;2.40;;;;;;;;;;5085436;28;20081;-65
2023/01/05 08:36:24;;;;;;;11.90;2.70;;;;;;;;;;5086468;28;20135;-64
2023/01/05 08:38:51;;;;;;;7.38;2.45;;;;;;;;;;5093433;28;20052;-65
2023/01/05 08:41:26;;;;;;;14.18;3.05;;;;;;;;;;5085902;28;20052;-65
2023/01/05 08:43:53;;;;;;;12.55;2.95;;;;;;;;;;5093070;28;20688;-65
2023/01/05 08:46:20;;;;;;;10.15;2.88;;;;;;;;;;5096509;28;20084;-64
2023/01/05 08:48:50;;;;;;;11.75;2.58;;;;;;;;;;5094028;28;20047;-65
2023/01/05 08:51:16;;;;;;;8.93;2.42;;;;;;;;;;5097020;28;20057;-65
2023/01/05 08:53:42;;;;;;;8.63;1.85;;;;;;;;;;5094516;28;20071;-65
2023/01/05 08:56:09;;;;;;;8.10;2.50;;;;;;;;;;5097453;28;20526;-65
2023/01/05 08:58:36;;;;;;;6.22;2.10;;;;;;;;;;5096593;28;20052;-65
2023/01/05 09:01:05;;;;;;;6.47;2.58;;;;;;;;;;5101836;28;20046;-65
2023/01/05 09:03:31;;;;;;;6.43;2.35;;;;;;;;;;5096620;28;20108;-65
2023/01/05 09:06:01;;;;;;;10.20;2.63;;;;;;;;;;5086911;28;20131;-65
2023/01/05 09:08:27;;;;;;;9.57;2.55;;;;;;;;;;5099757;28;20547;-64
2023/01/05 09:10:53;;;;;;;6.72;1.95;;;;;;;;;;5102528;28;20119;-65
2023/01/05 09:13:19;;;;;;;8.85;2.20;;;;;;;;;;5101509;28;20156;-65
2023/01/05 09:15:45;;;;;;;8.45;2.45;;;;;;;;;;5093891;28;20058;-64
2023/01/05 09:18:11;;;;;;;11.10;2.58;;;;;;;;;;5099892;28;20386;-64
2023/01/05 09:20:37;;;;;;;11.68;2.38;;;;;;;;;;5097127;28;20051;-64
2023/01/05 09:23:03;;;;;;;5.05;2.15;;;;;;;;;;5085346;28;20046;-65
2023/01/05 09:25:29;;;;;;;4.20;1.50;;;;;;;;;;5099618;28;20616;-65
2023/01/05 09:27:55;;;;;;;6.50;1.65;;;;;;;;;;5074658;28;20482;-66
2023/01/05 09:30:21;;;;;;;4.30;1.17;;;;;;;;;;5079125;28;20043;-63
2023/01/05 09:32:47;;;;;;;7.40;1.73;;;;;;;;;;5098346;28;20042;-63
2023/01/05 09:35:13;;;;;;;3.58;1.25;;;;;;;;;;5083405;28;20048;-66
2023/01/05 09:37:39;;;;;;;6.55;1.48;;;;;;;;;;5073901;28;20048;-63
2023/01/05 09:40:05;;;;;;;8.80;2.17;;;;;;;;;;5096394;28;20052;-63
2023/01/05 09:42:33;;;;;;;8.35;2.47;;;;;;;;;;5086875;28;20064;-63
2023/01/05 09:45:02;;;;;;;11.60;2.85;;;;;;;;;;5095532;28;20103;-62
2023/01/05 09:47:41;;;;;;;5.63;2.08;;;;;;;;;;5097562;28;20047;-63
2023/01/05 09:50:12;;;;;;;10.18;2.17;;;;;;;;;;5084954;28;20047;-62
2023/01/05 09:52:38;;;;;;;7.57;2.15;;;;;;;;;;5098437;28;20406;-63
2023/01/05 09:55:18;;;;;;;9.48;1.50;;;;;;;;;;5084392;28;20051;-63
2023/01/05 09:57:55;;;;;;;6.13;1.50;;;;;;;;;;5086363;28;20674;-63
2023/01/05 10:00:22;;;;;;;6.72;1.70;;;;;;;;;;5070766;28;20074;-63
2023/01/05 10:02:50;;;;;;;7.45;1.38;;;;;;;;;;5085198;28;20154;-63
2023/01/05 10:05:16;;;;;;;5.78;1.42;;;;;;;;;;5085783;28;20051;-63
2023/01/05 10:07:45;;;;;;;8.20;2.10;;;;;;;;;;5098032;28;20043;-63
2023/01/05 10:10:23;;;;;;;6.78;1.85;;;;;;;;;;5081145;28;20047;-63
2023/01/05 10:13:02;;;;;;;5.53;1.40;;;;;;;;;;5076558;28;20047;-63
2023/01/05 10:15:48;;;;;;;3.38;1.15;;;;;;;;;;5104469;28;20048;-63
2023/01/05 10:18:17;;;;;;;3.45;1.52;;;;;;;;;;5098842;28;20048;-63
2023/01/05 10:20:55;;;;;;;3.80;1.27;;;;;;;;;;5093244;28;20043;-63
2023/01/05 10:23:39;;;;;;;7.95;1.50;;;;;;;;;;5098194;28;20035;-63
2023/01/05 10:26:19;;;;;;;5.90;1.40;;;;;;;;;;5084466;28;20111;-63
2023/01/05 10:28:48;;;;;;;5.00;1.30;;;;;;;;;;5084434;28;20475;-63
2023/01/05 10:31:21;;;;;;;3.38;0.95;;;;;;;;;;5083238;28;20576;-63
2023/01/05 10:33:49;;;;;;;3.95;1.23;;;;;;;;;;5094408;28;20051;-63
2023/01/05 10:36:17;;;;;;;5.68;1.15;;;;;;;;;;5102537;28;20091;-63
2023/01/05 10:38:49;;;;;;;1.88;1.00;;;;;;;;;;5096674;28;20055;-64
2023/01/05 10:41:21;;;;;;;2.38;0.68;;;;;;;;;;5091055;28;20087;-63
2023/01/05 10:43:56;;;;;;;1.77;0.70;;;;;;;;;;5083518;28;20494;-63
2023/01/05 10:46:22;;;;;;;2.60;1.05;;;;;;;;;;5084815;28;20047;-63
2023/01/05 10:48:48;;;;;;;5.90;1.15;;;;;;;;;;5097286;28;20092;-63
2023/01/05 10:51:14;;;;;;;3.55;1.20;;;;;;;;;;5083398;28;20048;-64
2023/01/05 10:53:42;;;;;;;4.00;1.23;;;;;;;;;;5102115;28;20051;-63
2023/01/05 10:56:09;;;;;;;3.90;1.15;;;;;;;;;;5083228;28;20148;-63
2023/01/05 10:58:39;;;;;;;5.63;1.58;;;;;;;;;;5102708;28;20040;-63
2023/01/05 11:01:14;;;;;;;2.33;1.15;;;;;;;;;;5100445;28;20093;-64
2023/01/05 11:03:42;;;;;;;6.05;1.23;;;;;;;;;;5090206;28;20044;-63
2023/01/05 11:06:18;;;;;;;2.70;0.98;;;;;;;;;;5095325;28;20040;-63
2023/01/05 11:08:44;;;;;;;1.73;0.82;;;;;;;;;;5083400;28;20506;-63
2023/01/05 11:11:10;;;;;;;3.10;1.15;;;;;;;;;;5090496;28;20039;-63
2023/01/05 11:13:37;;;;;;;6.93;1.33;;;;;;;;;;5081180;28;20043;-63
2023/01/05 11:16:09;;;;;;;4.78;1.33;;;;;;;;;;5074177;28;20056;-63
2023/01/05 11:18:41;;;;;;;6.65;1.45;;;;;;;;;;5088360;28;20044;-63
2023/01/05 11:21:07;;;;;;;7.78;1.80;;;;;;;;;;5080222;28;20048;-63
2023/01/05 11:23:37;;;;;;;3.30;1.00;;;;;;;;;;5068480;28;20672;-63
2023/01/05 11:26:18;;;;;;;6.05;1.52;;;;;;;;;;5076632;28;20623;-63
2023/01/05 11:29:14;;;;;;;2.22;0.77;;;;;;;;;;5089134;28;20048;-63
2023/01/05 11:31:43;;;;;;;6.28;1.50;;;;;;;;;;5063367;28;20052;-63
2023/01/05 11:34:27;;;;;;;4.15;1.42;;;;;;;;;;5076354;28;20508;-63
2023/01/05 11:36:54;;;;;;;4.32;1.15;;;;;;;;;;5087915;28;20043;-62
2023/01/05 11:39:27;;;;;;;3.42;1.00;;;;;;;;;;5087383;28;20135;-62
2023/01/05 11:42:04;;;;;;;3.03;0.70;;;;;;;;;;5089583;28;20068;-62
2023/01/05 11:44:31;;;;;;;2.92;0.90;;;;;;;;;;5073058;28;20378;-62
2023/01/05 11:46:58;;;;;;;4.28;1.08;;;;;;;;;;5080512;28;20176;-62
2023/01/05 11:49:24;;;;;;;6.88;1.35;;;;;;;;;;5092902;28;20036;-62
2023/01/05 11:51:50;;;;;;;4.15;1.42;;;;;;;;;;5082788;28;20081;-62
2023/01/05 11:54:31;;;;;;;6.72;1.35;;;;;;;;;;5072642;28;20063;-62
2023/01/05 11:57:17;;;;;;;2.53;1.20;;;;;;;;;;5083871;28;20032;-62
2023/01/05 11:59:44;;;;;;;6.53;1.83;;;;;;;;;;5066846;28;20416;-62
2023/01/05 12:02:29;;;;;;;7.35;1.85;;;;;;;;;;5100091;28;20486;-62
2023/01/05 12:05:03;;;;;;;3.38;1.15;;;;;;;;;;5075171;28;20059;-62
2023/01/05 12:07:41;;;;;;;3.00;1.20;;;;;;;;;;5099511;28;20066;-63
2023/01/05 12:10:20;;;;;;;2.33;0.98;;;;;;;;;;5075962;28;20105;-62
2023/01/05 12:13:18;;;;;;;4.72;1.50;;;;;;;;;;5086269;28;20067;-62
2023/01/05 12:15:59;;;;;;;3.28;1.00;;;;;;;;;;5023213;28;20143;-62
2023/01/05 12:18:38;;;;;;;3.08;1.02;;;;;;;;;;5067655;28;20086;-62
2023/01/05 12:21:17;;;;;;;2.40;0.90;;;;;;;;;;5067590;28;20338;-63
2023/01/05 12:23:52;;;;;;;1.25;0.90;;;;;;;;;;5097880;28;20118;-62
2023/01/05 12:26:18;;;;;;;0.93;0.35;;;;;;;;;;5070398;28;20048;-63
2023/01/05 12:28:51;;;;;;;2.67;0.47;;;;;;;;;;5095626;28;20398;-63
2023/01/05 12:31:23;;;;;;;3.17;0.88;;;;;;;;;;5100003;28;20067;-63
2023/01/05 12:34:08;;;;;;;3.20;0.82;;;;;;;;;;5097857;28;20051;-62
2023/01/05 12:37:06;;;;;;;4.88;1.13;;;;;;;;;;5093161;28;20131;-62
2023/01/05 12:39:40;;;;;;;5.65;1.30;;;;;;;;;;5025964;28;20333;-63
2023/01/05 12:42:12;;;;;;;3.58;1.10;;;;;;;;;;5088349;28;20096;-63
2023/01/05 12:44:47;;;;;;;6.03;1.70;;;;;;;;;;5086580;28;20143;-62
2023/01/05 12:47:19;;;;;;;5.35;1.60;;;;;;;;;;5078680;28;20127;-63
2023/01/05 12:49:53;;;;;;;3.47;0.82;;;;;;;;;;5068186;28;20482;-63
2023/01/05 12:52:28;;;;;;;7.90;2.08;;;;;;;;;;5067256;28;20082;-63
2023/01/05 12:55:06;;;;;;;1.77;0.95;;;;;;;;;;5085396;28;20043;-63
2023/01/05 12:57:32;;;;;;;2.78;0.93;;;;;;;;;;5079171;28;20067;-63
2023/01/05 13:00:01;;;;;;;5.70;1.67;;;;;;;;;;5069746;28;20045;-63
2023/01/05 13:02:33;;;;;;;3.83;1.52;;;;;;;;;;5077121;28;20048;-63
2023/01/05 13:05:18;;;;;;;12.18;2.15;;;;;;;;;;5073043;28;20037;-63
2023/01/05 13:08:00;;;;;;;4.75;1.67;;;;;;;;;;5059187;28;20037;-63
2023/01/05 13:10:29;;;;;;;13.95;2.00;;;;;;;;;;5049871;28;20098;-63
2023/01/05 13:12:56;;;;;;;6.05;1.90;;;;;;;;;;5066448;28;20090;-63
2023/01/05 13:15:43;;;;;;;5.75;1.50;;;;;;;;;;5056615;28;20044;-63
2023/01/05 13:18:15;;;;;;;8.10;2.08;;;;;;;;;;5085715;28;20039;-63
2023/01/05 13:20:47;;;;;;;4.03;1.40;;;;;;;;;;5099239;28;20763;-66
2023/01/05 13:23:13;;;;;;;6.25;1.23;;;;;;;;;;5083741;28;20039;-66
2023/01/05 13:25:44;;;;;;;2.45;1.20;;;;;;;;;;5083182;28;20048;-66
2023/01/05 13:28:17;;;;;;;1.88;0.75;;;;;;;;;;5070560;28;20109;-66
2023/01/05 13:30:48;;;;;;;2.95;0.95;;;;;;;;;;5088070;28;20096;-66
2023/01/05 13:33:14;;;;;;;4.75;1.30;;;;;;;;;;5101654;28;20819;-67
2023/01/05 13:35:46;;;;;;;1.85;1.10;;;;;;;;;;5084564;28;20047;-66
2023/01/05 13:38:18;;;;;;;3.90;0.93;;;;;;;;;;5084793;28;20379;-67
2023/01/05 13:40:44;;;;;;;5.88;1.60;;;;;;;;;;5087273;28;20078;-66
2023/01/05 13:43:19;;;;;;;7.78;2.05;;;;;;;;;;5093529;28;20054;-66
2023/01/05 13:45:57;;;;;;;13.70;2.45;;;;;;;;;;5081628;28;20044;-68
2023/01/05 13:48:32;;;;;;;4.80;1.73;;;;;;;;;;5089307;28;20093;-66
2023/01/05 13:51:17;;;;;;;2.90;1.25;;;;;;;;;;5066973;28;20426;-64
2023/01/05 13:53:46;;;;;;;4.88;1.42;;;;;;;;;;5065097;28;20044;-62
2023/01/05 13:56:12;;;;;;;7.13;1.88;;;;;;;;;;5084543;28;20100;-62
2023/01/05 13:58:41;;;;;;;2.50;1.20;;;;;;;;;;5067835;28;20506;-62
2023/01/05 14:01:08;;;;;;;5.57;1.52;;;;;;;;;;5085834;28;20621;-62
2023/01/05 14:03:37;;;;;;;4.63;2.00;;;;;;;;;;5087332;28;20065;-62
2023/01/05 14:06:07;;;;;;;2.33;1.15;;;;;;;;;;5068148;28;20043;-62
2023/01/05 14:08:40;;;;;;;2.30;1.17;;;;;;;;;;5084531;28;20044;-62
2023/01/05 14:11:09;;;;;;;1.75;1.00;;;;;;;;;;5082374;28;20044;-62
2023/01/05 14:13:42;;;;;;;3.92;1.58;;;;;;;;;;5086356;28;20039;-62
2023/01/05 14:16:27;;;;;;;4.20;1.58;;;;;;;;;;5063402;28;20489;-62
2023/01/05 14:19:02;;;;;;;5.05;1.75;;;;;;;;;;5088858;28;20037;-62
2023/01/05 14:22:03;;;;;;;6.15;1.67;;;;;;;;;;5079282;28;21055;-62
2023/01/05 14:24:35;;;;;;;5.20;1.58;;;;;;;;;;4991042;28;20202;-62
2023/01/05 14:27:08;;;;;;;4.15;1.55;;;;;;;;;;5068818;28;20412;-62
2023/01/05 14:29:46;;;;;;;4.45;1.48;;;;;;;;;;5085082;28;20126;-62
2023/01/05 14:32:32;;;;;;;3.17;1.33;;;;;;;;;;5070950;28;20134;-62
2023/01/05 14:35:05;;;;;;;6.38;1.60;;;;;;;;;;5061110;28;20051;-62
2023/01/05 14:37:35;;;;;;;3.75;1.33;;;;;;;;;;5065497;28;20078;-62
2023/01/05 14:40:01;;;;;;;3.33;1.17;;;;;;;;;;5082538;28;20032;-62
2023/01/05 14:42:27;;;;;;;8.32;1.23;;;;;;;;;;5088392;28;20632;-63
2023/01/05 14:44:58;;;;;;;2.05;0.80;;;;;;;;;;5083331;28;20055;-62
2023/01/05 14:47:44;;;;;;;4.05;1.45;;;;;;;;;;5089504;28;20052;-62
2023/01/05 14:50:25;;;;;;;7.00;1.75;;;;;;;;;;5074846;28;20055;-62
2023/01/05 14:52:53;;;;;;;4.25;1.50;;;;;;;;;;5074477;28;20036;-62
2023/01/05 14:55:30;;;;;;;7.57;1.45;;;;;;;;;;5086313;28;20478;-62
2023/01/05 14:57:57;;;;;;;3.65;1.48;;;;;;;;;;5092532;28;20062;-63
2023/01/05 15:00:23;;;;;;;7.13;2.10;;;;;;;;;;5085142;28;20466;-63
2023/01/05 15:02:58;;;;;;;12.13;2.72;;;;;;;;;;5084182;28;20044;-63
2023/01/05 15:05:25;;;;;;;5.63;2.10;;;;;;;;;;5084946;28;20051;-63
2023/01/05 15:07:57;;;;;;;2.10;1.45;;;;;;;;;;5084802;28;20495;-63
2023/01/05 15:10:23;;;;;;;6.30;2.20;;;;;;;;;;5085070;28;20486;-63
2023/01/05 15:13:01;;;;;;;8.90;2.05;;;;;;;;;;5075833;28;20047;-63
2023/01/05 15:15:42;;;;;;;3.15;1.33;;;;;;;;;;5076735;28;20052;-63
2023/01/05 15:18:21;;;;;;;5.28;1.45;;;;;;;;;;5086188;28;20059;-63
2023/01/05 15:20:59;;;;;;;6.07;1.77;;;;;;;;;;5079548;28;20097;-63
2023/01/05 15:23:44;;;;;;;5.72;2.20;;;;;;;;;;5060489;28;20075;-63